Time;durP1;ratioP1;P1;durP2;ratioP2;P2;SDS_P1;SDS_P2;PMS_P1;PMS_P2;Temp;Humidity;BMP_temperature;BMP_pressure;BME280_temperature;BME280_humidity;BME280_pressure;Samples;Min_cycle;Max_cycle;Signal;HPM_P1;HPM_P2
2022/03/17 00:03:59;;;;;;;31.98;24.08;;;;;;;;;;8138753;28;20039;-60
2022/03/17 00:08:00;;;;;;;29.45;23.08;;;;;;;;;;8140367;28;20027;-61
2022/03/17 00:12:00;;;;;;;30.30;23.97;;;;;;;;;;8138987;28;20549;-60
2022/03/17 00:16:00;;;;;;;29.38;22.90;;;;;;;;;;8138206;28;20275;-60
2022/03/17 00:20:02;;;;;;;31.30;23.92;;;;;;;;;;8140034;28;20524;-60
2022/03/17 00:24:03;;;;;;;29.50;23.38;;;;;;;;;;8140753;28;20118;-60
2022/03/17 00:28:03;;;;;;;26.58;21.98;;;;;;;;;;8142170;29;20031;-60
2022/03/17 00:32:04;;;;;;;34.40;23.05;;;;;;;;;;8142839;28;20552;-60
2022/03/17 00:36:04;;;;;;;29.95;23.38;;;;;;;;;;8143380;29;20030;-60
2022/03/17 00:40:04;;;;;;;26.15;21.70;;;;;;;;;;8141002;28;20198;-60
2022/03/17 00:44:05;;;;;;;27.58;21.88;;;;;;;;;;8144171;28;20055;-61
2022/03/17 00:48:05;;;;;;;28.27;22.15;;;;;;;;;;8142694;28;20508;-60
2022/03/17 00:52:10;;;;;;;29.80;22.35;;;;;;;;;;8142319;28;20027;-59
2022/03/17 00:56:10;;;;;;;30.02;23.17;;;;;;;;;;8140712;29;20019;-60
2022/03/17 01:00:14;;;;;;;29.52;23.88;;;;;;;;;;8141408;28;20355;-59
2022/03/17 01:04:14;;;;;;;;;;;;;;;;;;8141678;29;20110;-59
2022/03/17 01:08:14;;;;;;;34.55;25.45;;;;;;;;;;8142827;28;19953;-60
2022/03/17 01:12:14;;;;;;;33.50;25.10;;;;;;;;;;8136658;28;20066;-59
2022/03/17 01:16:15;;;;;;;39.75;26.33;;;;;;;;;;8139450;28;20464;-59
2022/03/17 01:20:15;;;;;;;48.05;30.05;;;;;;;;;;8139352;28;20027;-60
2022/03/17 01:24:16;;;;;;;46.42;29.90;;;;;;;;;;8141506;28;20035;-59
2022/03/17 01:28:16;;;;;;;39.55;26.23;;;;;;;;;;8143648;28;20066;-59
2022/03/17 01:32:17;;;;;;;35.08;25.40;;;;;;;;;;8141288;28;20102;-60
2022/03/17 01:36:17;;;;;;;41.08;26.20;;;;;;;;;;8142414;29;20065;-59
2022/03/17 01:40:17;;;;;;;41.88;28.08;;;;;;;;;;8141111;29;20444;-60
2022/03/17 01:44:18;;;;;;;39.10;27.03;;;;;;;;;;8142796;28;20026;-60
2022/03/17 01:48:19;;;;;;;42.60;29.20;;;;;;;;;;8142018;28;20035;-59
2022/03/17 01:52:19;;;;;;;38.35;26.48;;;;;;;;;;8143239;28;20055;-60
2022/03/17 01:56:19;;;;;;;62.13;38.25;;;;;;;;;;8138042;28;20503;-59
2022/03/17 02:00:21;;;;;;;53.13;32.45;;;;;;;;;;8141634;28;20082;-59
2022/03/17 02:04:21;;;;;;;34.00;24.70;;;;;;;;;;8141890;29;20282;-59
2022/03/17 02:08:22;;;;;;;29.27;22.73;;;;;;;;;;8143015;29;20027;-60
2022/03/17 02:16:42;;;;;;;31.23;24.35;;;;;;;;;;8140658;28;20043;-59
2022/03/17 02:20:42;;;;;;;30.95;23.70;;;;;;;;;;8140617;28;20036;-59
2022/03/17 02:29:02;;;;;;;28.48;21.90;;;;;;;;;;8145668;29;20042;-59
2022/03/17 02:33:04;;;;;;;30.77;22.97;;;;;;;;;;8145191;28;20584;-59
2022/03/17 02:37:04;;;;;;;27.15;21.70;;;;;;;;;;8147928;29;20945;-60
2022/03/17 02:41:04;;;;;;;28.10;22.63;;;;;;;;;;8146374;29;20023;-59
2022/03/17 02:45:06;;;;;;;31.77;21.95;;;;;;;;;;8146498;28;20034;-60
2022/03/17 02:49:06;;;;;;;28.33;22.45;;;;;;;;;;8146815;28;20016;-60
2022/03/17 02:53:07;;;;;;;29.50;23.50;;;;;;;;;;8163391;28;20111;-59
2022/03/17 02:57:07;;;;;;;29.33;23.17;;;;;;;;;;8146776;28;20110;-59
2022/03/17 03:01:08;;;;;;;25.95;21.33;;;;;;;;;;8143812;28;20066;-59
2022/03/17 03:05:09;;;;;;;28.80;23.08;;;;;;;;;;8145916;29;20034;-59
2022/03/17 03:09:09;;;;;;;29.42;23.55;;;;;;;;;;8147104;29;20034;-59
2022/03/17 03:13:10;;;;;;;31.38;24.15;;;;;;;;;;8145929;29;20408;-59
2022/03/17 03:17:10;;;;;;;29.30;23.35;;;;;;;;;;8146069;28;20126;-59
2022/03/17 03:21:10;;;;;;;28.02;22.20;;;;;;;;;;8144715;28;20583;-59
2022/03/17 03:25:11;;;;;;;27.73;22.27;;;;;;;;;;8144986;29;20035;-59
2022/03/17 03:29:32;;;;;;;28.08;22.88;;;;;;;;;;8145855;29;20520;-59
2022/03/17 03:33:32;;;;;;;30.65;22.80;;;;;;;;;;8143707;28;20063;-60
2022/03/17 03:37:32;;;;;;;28.75;23.80;;;;;;;;;;8143986;28;20050;-59
2022/03/17 03:41:32;;;;;;;31.35;23.80;;;;;;;;;;8143855;28;20046;-59
2022/03/17 03:45:33;;;;;;;30.33;23.88;;;;;;;;;;8145414;28;20043;-59
2022/03/17 03:49:34;;;;;;;30.05;23.30;;;;;;;;;;8146075;28;20031;-59
2022/03/17 03:57:54;;;;;;;30.33;23.95;;;;;;;;;;8145135;29;20150;-59
2022/03/17 04:01:54;;;;;;;27.92;22.67;;;;;;;;;;8144294;28;20067;-59
2022/03/17 04:05:55;;;;;;;27.30;22.05;;;;;;;;;;8145012;29;20345;-59
2022/03/17 04:09:55;;;;;;;28.00;22.33;;;;;;;;;;8143945;28;20019;-59
2022/03/17 04:13:55;;;;;;;30.10;22.27;;;;;;;;;;8143494;29;20090;-59
2022/03/17 04:17:55;;;;;;;29.25;23.88;;;;;;;;;;8142531;28;20548;-59
2022/03/17 04:21:56;;;;;;;30.05;23.05;;;;;;;;;;8144439;28;20023;-59
2022/03/17 04:25:56;;;;;;;34.47;26.27;;;;;;;;;;8144562;28;20062;-59
2022/03/17 04:29:56;;;;;;;32.88;24.88;;;;;;;;;;8142482;28;20319;-59
2022/03/17 04:33:56;;;;;;;34.63;25.00;;;;;;;;;;8142134;28;20043;-60
2022/03/17 04:37:56;;;;;;;30.73;23.83;;;;;;;;;;8143864;29;20521;-59
2022/03/17 04:41:57;;;;;;;27.48;22.52;;;;;;;;;;8140471;29;20264;-59
2022/03/17 04:45:57;;;;;;;30.00;23.45;;;;;;;;;;8143473;28;20175;-59
2022/03/17 04:49:57;;;;;;;32.03;23.33;;;;;;;;;;8142077;28;20042;-59
2022/03/17 04:53:57;;;;;;;30.40;23.15;;;;;;;;;;8142087;29;20023;-60
2022/03/17 04:57:58;;;;;;;30.60;24.48;;;;;;;;;;8143339;29;20824;-59
2022/03/17 05:01:58;;;;;;;34.53;25.55;;;;;;;;;;8141581;28;20031;-59
2022/03/17 05:05:59;;;;;;;31.60;24.20;;;;;;;;;;8141334;28;20031;-59
2022/03/17 05:09:59;;;;;;;34.38;25.02;;;;;;;;;;8141551;29;20224;-59
2022/03/17 05:14:00;;;;;;;31.52;24.90;;;;;;;;;;8141910;29;20015;-59
2022/03/17 05:18:00;;;;;;;32.25;25.05;;;;;;;;;;8142110;28;20174;-60
2022/03/17 05:22:00;;;;;;;31.75;22.13;;;;;;;;;;8141572;28;20583;-60
2022/03/17 05:26:01;;;;;;;31.63;24.00;;;;;;;;;;8141520;29;20902;-59
2022/03/17 05:30:01;;;;;;;30.83;24.60;;;;;;;;;;8140700;29;20313;-59
2022/03/17 05:34:01;;;;;;;31.65;23.55;;;;;;;;;;8141690;28;20063;-60
2022/03/17 05:38:01;;;;;;;30.25;23.63;;;;;;;;;;8143100;29;20110;-59
2022/03/17 05:42:02;;;;;;;31.65;22.63;;;;;;;;;;8141203;29;20472;-60
2022/03/17 05:46:03;;;;;;;29.70;23.40;;;;;;;;;;8140956;28;20126;-59
2022/03/17 05:50:04;;;;;;;32.47;22.45;;;;;;;;;;8139895;28;20019;-59
2022/03/17 05:54:06;;;;;;;28.00;22.73;;;;;;;;;;8141102;28;20035;-60
2022/03/17 05:58:06;;;;;;;32.20;23.40;;;;;;;;;;8144374;29;20081;-59
2022/03/17 06:02:06;;;;;;;35.40;24.58;;;;;;;;;;8145748;28;20159;-59
2022/03/17 06:06:06;;;;;;;30.10;22.67;;;;;;;;;;8146619;28;20438;-59
2022/03/17 06:10:13;;;;;;;29.13;22.95;;;;;;;;;;8148778;28;20561;-59
2022/03/17 06:14:13;;;;;;;27.75;22.48;;;;;;;;;;8148331;29;20034;-60
2022/03/17 06:18:14;;;;;;;31.63;22.10;;;;;;;;;;8147667;28;20443;-59
2022/03/17 06:22:14;;;;;;;29.50;22.30;;;;;;;;;;8148075;28;20024;-60
2022/03/17 06:26:14;;;;;;;34.53;24.27;;;;;;;;;;8147528;29;20492;-60
2022/03/17 06:30:15;;;;;;;34.65;24.88;;;;;;;;;;8145532;28;20027;-59
2022/03/17 06:34:15;;;;;;;37.90;25.05;;;;;;;;;;8147200;29;20152;-61
2022/03/17 06:38:16;;;;;;;33.17;24.15;;;;;;;;;;8147023;29;20598;-59
2022/03/17 06:42:16;;;;;;;31.92;23.73;;;;;;;;;;8144141;29;20050;-60
2022/03/17 06:46:16;;;;;;;28.48;21.95;;;;;;;;;;8146305;28;20361;-59
2022/03/17 06:50:17;;;;;;;29.02;21.88;;;;;;;;;;8146370;28;20046;-59
2022/03/17 06:54:17;;;;;;;28.83;21.13;;;;;;;;;;8145940;28;20635;-59
2022/03/17 06:58:18;;;;;;;31.17;22.60;;;;;;;;;;8145242;29;20033;-59
2022/03/17 07:02:18;;;;;;;31.50;22.73;;;;;;;;;;8146082;28;20562;-59
2022/03/17 07:06:20;;;;;;;29.02;21.58;;;;;;;;;;8144977;28;20024;-60
2022/03/17 07:10:21;;;;;;;25.83;21.33;;;;;;;;;;8144576;29;20031;-59
2022/03/17 07:14:21;;;;;;;26.95;20.70;;;;;;;;;;8144819;29;20485;-59
2022/03/17 07:18:21;;;;;;;27.52;21.77;;;;;;;;;;8145086;28;20036;-59
2022/03/17 07:22:21;;;;;;;29.77;22.02;;;;;;;;;;8145986;28;20065;-61
2022/03/17 07:26:21;;;;;;;29.13;22.20;;;;;;;;;;8145504;28;20034;-59
2022/03/17 07:30:22;;;;;;;31.40;22.43;;;;;;;;;;8145533;28;20695;-60
2022/03/17 07:34:23;;;;;;;29.27;22.08;;;;;;;;;;8145488;29;20804;-60
2022/03/17 07:38:23;;;;;;;29.88;22.52;;;;;;;;;;8145685;28;20729;-59
2022/03/17 07:42:24;;;;;;;27.08;21.55;;;;;;;;;;8145070;28;20156;-60
2022/03/17 07:46:24;;;;;;;28.75;22.42;;;;;;;;;;8143539;28;20035;-59
2022/03/17 07:50:25;;;;;;;29.80;22.73;;;;;;;;;;8142808;28;20671;-60
2022/03/17 07:54:25;;;;;;;28.48;22.45;;;;;;;;;;8141051;29;20107;-60
2022/03/17 07:58:26;;;;;;;28.58;22.35;;;;;;;;;;8143861;28;20027;-60
2022/03/17 08:02:26;;;;;;;31.05;23.55;;;;;;;;;;8135978;28;20047;-59
2022/03/17 08:06:26;;;;;;;34.08;23.52;;;;;;;;;;8137871;28;20799;-59
2022/03/17 08:10:29;;;;;;;34.38;22.40;;;;;;;;;;8141288;29;20043;-60
2022/03/17 08:14:29;;;;;;;33.33;23.67;;;;;;;;;;8139946;29;20030;-60
2022/03/17 08:18:31;;;;;;;38.20;22.70;;;;;;;;;;8143511;28;20039;-60
2022/03/17 08:22:32;;;;;;;33.60;23.17;;;;;;;;;;8142956;28;20178;-60
2022/03/17 08:26:33;;;;;;;31.00;21.98;;;;;;;;;;8142896;28;20031;-60
2022/03/17 08:30:34;;;;;;;33.25;22.35;;;;;;;;;;8141033;28;20051;-60
2022/03/17 08:34:35;;;;;;;29.73;21.95;;;;;;;;;;8143119;29;20671;-60
2022/03/17 08:38:35;;;;;;;32.50;22.67;;;;;;;;;;8143376;29;20552;-60
2022/03/17 08:42:36;;;;;;;30.63;21.92;;;;;;;;;;8142913;29;20059;-60
2022/03/17 08:50:55;;;;;;;30.35;22.27;;;;;;;;;;8139786;28;20033;-60
2022/03/17 08:54:55;;;;;;;32.67;22.77;;;;;;;;;;8141916;29;20118;-60
2022/03/17 08:58:55;;;;;;;29.45;23.17;;;;;;;;;;8142797;29;20019;-60
2022/03/17 09:02:56;;;;;;;30.50;23.40;;;;;;;;;;8141556;28;20122;-60
2022/03/17 09:06:59;;;;;;;33.35;23.23;;;;;;;;;;8142094;29;20413;-60
2022/03/17 09:10:59;;;;;;;28.80;20.90;;;;;;;;;;8140723;28;20038;-60
2022/03/17 09:14:59;;;;;;;31.05;22.10;;;;;;;;;;8141976;28;20465;-60
2022/03/17 09:18:59;;;;;;;28.02;22.35;;;;;;;;;;8141605;28;20796;-60
2022/03/17 09:23:01;;;;;;;27.47;22.03;;;;;;;;;;8143222;28;20023;-60
2022/03/17 09:27:01;;;;;;;26.75;21.42;;;;;;;;;;8139252;29;20354;-60
2022/03/17 09:31:01;;;;;;;27.33;21.15;;;;;;;;;;8142485;28;20044;-60
2022/03/17 09:35:02;;;;;;;28.30;21.35;;;;;;;;;;8148638;29;20375;-60
2022/03/17 09:43:21;;;;;;;28.55;21.98;;;;;;;;;;8147552;29;20591;-60
2022/03/17 09:47:22;;;;;;;28.70;21.98;;;;;;;;;;8147439;28;20031;-60
2022/03/17 09:51:24;;;;;;;30.85;22.60;;;;;;;;;;8147311;28;20625;-60
2022/03/17 09:55:24;;;;;;;32.08;22.63;;;;;;;;;;8146625;28;20646;-60
2022/03/17 09:59:24;;;;;;;31.98;23.80;;;;;;;;;;8145662;29;20108;-60
2022/03/17 10:03:29;;;;;;;31.10;24.20;;;;;;;;;;8145464;28;20537;-60
2022/03/17 10:07:29;;;;;;;33.42;25.05;;;;;;;;;;8149664;28;20039;-60
2022/03/17 10:11:31;;;;;;;33.30;26.52;;;;;;;;;;8147180;28;20466;-60
2022/03/17 10:15:31;;;;;;;32.63;26.13;;;;;;;;;;8147750;28;20071;-60
2022/03/17 10:19:32;;;;;;;32.42;26.35;;;;;;;;;;8138559;28;20023;-60
2022/03/17 10:23:32;;;;;;;33.45;25.98;;;;;;;;;;8143979;29;20035;-60
2022/03/17 10:27:36;;;;;;;33.42;26.33;;;;;;;;;;8141142;28;20339;-60
2022/03/17 10:31:52;;;;;;;36.65;27.60;;;;;;;;;;8143882;28;20493;-60
2022/03/17 10:35:52;;;;;;;36.33;26.95;;;;;;;;;;8136155;28;20185;-60
2022/03/17 10:39:53;;;;;;;34.17;26.23;;;;;;;;;;8141900;29;20020;-60
2022/03/17 10:43:58;;;;;;;35.67;26.38;;;;;;;;;;8146404;28;20095;-60
2022/03/17 10:48:05;;;;;;;37.78;25.90;;;;;;;;;;8142786;28;20042;-60
2022/03/17 10:52:05;;;;;;;33.45;26.25;;;;;;;;;;8145391;28;20035;-60
2022/03/17 10:56:12;;;;;;;32.35;25.63;;;;;;;;;;8143936;28;20023;-60
2022/03/17 11:00:20;;;;;;;32.83;25.63;;;;;;;;;;8146119;28;20491;-60
2022/03/17 11:04:21;;;;;;;28.83;21.38;;;;;;;;;;8145788;29;20019;-59
2022/03/17 11:08:21;;;;;;;24.20;19.77;;;;;;;;;;8146253;28;20576;-59
2022/03/17 11:12:22;;;;;;;24.70;18.63;;;;;;;;;;8144151;29;20028;-61
2022/03/17 11:16:24;;;;;;;24.00;17.92;;;;;;;;;;8143660;28;20143;-59
2022/03/17 11:20:24;;;;;;;22.95;17.35;;;;;;;;;;8143565;28;20027;-59
2022/03/17 11:24:24;;;;;;;21.10;15.75;;;;;;;;;;8144845;28;20383;-60
2022/03/17 11:28:32;;;;;;;20.65;15.98;;;;;;;;;;8142398;28;20563;-59
2022/03/17 11:32:33;;;;;;;20.23;15.63;;;;;;;;;;8143338;28;20066;-60
2022/03/17 11:36:34;;;;;;;19.38;14.27;;;;;;;;;;8143979;28;20073;-60
2022/03/17 11:40:54;;;;;;;19.10;13.73;;;;;;;;;;8143994;29;20043;-59
2022/03/17 11:45:12;;;;;;;15.88;13.23;;;;;;;;;;8144785;29;20422;-60
2022/03/17 11:49:27;;;;;;;18.85;12.93;;;;;;;;;;8143558;28;20090;-61
2022/03/17 11:53:57;;;;;;;16.25;12.32;;;;;;;;;;8137596;28;20066;-59
2022/03/17 11:58:24;;;;;;;14.52;11.30;;;;;;;;;;8132222;28;20336;-60
2022/03/17 12:02:28;;;;;;;17.63;12.30;;;;;;;;;;8136188;28;20049;-60
2022/03/17 12:06:28;;;;;;;;;;;;;;;;;;8145366;29;20452;-59
2022/03/17 12:10:47;;;;;;;14.57;10.88;;;;;;;;;;8140196;28;20364;-60
2022/03/17 12:14:49;;;;;;;14.65;9.98;;;;;;;;;;8142039;28;20199;-60
2022/03/17 12:19:01;;;;;;;13.95;10.38;;;;;;;;;;8142978;28;20086;-60
2022/03/17 12:23:02;;;;;;;19.08;11.73;;;;;;;;;;8140543;29;20068;-59
2022/03/17 12:27:05;;;;;;;14.93;9.85;;;;;;;;;;8137132;28;20581;-59
2022/03/17 12:31:06;;;;;;;12.65;9.40;;;;;;;;;;8123469;28;20042;-60
2022/03/17 12:35:08;;;;;;;12.05;8.25;;;;;;;;;;8141260;28;20398;-60
2022/03/17 12:39:08;;;;;;;9.93;7.55;;;;;;;;;;8133129;28;20015;-59
2022/03/17 12:43:17;;;;;;;9.90;7.10;;;;;;;;;;8139326;29;20038;-60
2022/03/17 12:47:18;;;;;;;8.35;6.57;;;;;;;;;;8139050;28;20413;-59
2022/03/17 12:51:18;;;;;;;10.65;6.38;;;;;;;;;;8138432;28;20091;-59
2022/03/17 12:55:19;;;;;;;8.52;6.65;;;;;;;;;;8140629;28;20023;-60
2022/03/17 12:59:19;;;;;;;7.93;6.72;;;;;;;;;;8137213;28;20027;-59
2022/03/17 13:03:21;;;;;;;7.55;6.68;;;;;;;;;;8138778;28;20557;-60
2022/03/17 13:07:23;;;;;;;8.13;6.40;;;;;;;;;;8136016;28;20137;-59
2022/03/17 13:15:43;;;;;;;8.68;7.18;;;;;;;;;;8139412;28;20794;-60
2022/03/17 13:19:49;;;;;;;8.98;7.20;;;;;;;;;;8138615;28;20019;-59
2022/03/17 13:23:50;;;;;;;8.85;6.53;;;;;;;;;;8139098;28;20337;-60
2022/03/17 13:27:54;;;;;;;8.93;7.63;;;;;;;;;;8137209;28;20289;-59
2022/03/17 13:31:55;;;;;;;;;;;;;;;;;;8140609;28;20043;-59
2022/03/17 13:35:55;;;;;;;13.52;8.73;;;;;;;;;;8139121;29;19914;-59
2022/03/17 13:39:59;;;;;;;11.40;9.05;;;;;;;;;;8132523;28;20035;-60
2022/03/17 13:44:05;;;;;;;14.40;9.18;;;;;;;;;;8145616;28;20027;-60
2022/03/17 13:48:10;;;;;;;10.57;9.40;;;;;;;;;;8143535;28;20127;-59
2022/03/17 13:52:10;;;;;;;12.98;10.07;;;;;;;;;;8145156;28;20579;-60
2022/03/17 13:56:11;;;;;;;13.70;10.90;;;;;;;;;;8146665;28;20031;-59
2022/03/17 14:00:16;;;;;;;14.05;10.88;;;;;;;;;;8143232;28;20980;-59
2022/03/17 14:04:25;;;;;;;14.35;11.15;;;;;;;;;;8164133;28;20019;-60
2022/03/17 14:08:25;;;;;;;14.77;11.63;;;;;;;;;;8145272;29;20918;-60
2022/03/17 14:12:25;;;;;;;14.88;11.73;;;;;;;;;;8143243;28;20582;-59
2022/03/17 14:16:27;;;;;;;15.00;12.20;;;;;;;;;;8145438;28;20035;-60
2022/03/17 14:20:27;;;;;;;16.05;12.18;;;;;;;;;;8149090;28;20047;-59
2022/03/17 14:24:29;;;;;;;15.90;12.13;;;;;;;;;;8149091;28;20026;-59
2022/03/17 14:28:29;;;;;;;15.25;12.18;;;;;;;;;;8149579;29;20028;-59
2022/03/17 14:32:29;;;;;;;13.82;11.35;;;;;;;;;;8148424;28;20031;-59
2022/03/17 14:36:31;;;;;;;16.70;12.23;;;;;;;;;;8149414;28;20027;-59
2022/03/17 14:40:31;;;;;;;16.98;12.95;;;;;;;;;;8147804;28;21170;-60
2022/03/17 14:44:31;;;;;;;13.97;11.10;;;;;;;;;;8150548;28;20560;-60
2022/03/17 14:48:32;;;;;;;17.33;11.15;;;;;;;;;;8148596;28;20040;-60
2022/03/17 14:52:32;;;;;;;14.95;10.63;;;;;;;;;;8150922;28;20038;-59
2022/03/17 14:56:33;;;;;;;16.03;11.30;;;;;;;;;;8150422;28;20031;-59
2022/03/17 15:00:33;;;;;;;13.07;9.65;;;;;;;;;;8147657;28;20296;-60
2022/03/17 15:04:33;;;;;;;16.57;10.17;;;;;;;;;;8149124;29;20774;-59
2022/03/17 15:08:34;;;;;;;10.57;7.53;;;;;;;;;;8148954;28;21067;-59
2022/03/17 15:12:34;;;;;;;10.40;6.80;;;;;;;;;;8149618;28;20031;-59
2022/03/17 15:16:34;;;;;;;6.32;5.30;;;;;;;;;;8147860;28;20283;-59
2022/03/17 15:20:34;;;;;;;6.57;4.72;;;;;;;;;;8149352;28;20070;-61
2022/03/17 15:24:34;;;;;;;5.83;4.00;;;;;;;;;;8146848;29;20032;-60
2022/03/17 15:32:53;;;;;;;5.55;3.60;;;;;;;;;;8146256;28;20041;-59
2022/03/17 15:36:54;;;;;;;4.93;3.35;;;;;;;;;;8146282;28;20027;-59
2022/03/17 15:40:55;;;;;;;4.22;3.10;;;;;;;;;;8148144;28;20035;-60
2022/03/17 15:44:55;;;;;;;4.72;3.42;;;;;;;;;;8148538;29;20477;-60
2022/03/17 15:48:55;;;;;;;4.93;3.25;;;;;;;;;;8146802;28;20043;-60
2022/03/17 15:52:57;;;;;;;5.43;2.90;;;;;;;;;;8145964;28;20023;-60
2022/03/17 15:56:57;;;;;;;4.03;3.40;;;;;;;;;;8149477;28;20908;-60
2022/03/17 16:00:58;;;;;;;4.43;2.70;;;;;;;;;;8144659;28;20145;-59
2022/03/17 16:04:59;;;;;;;4.20;2.92;;;;;;;;;;8146324;28;20143;-60
2022/03/17 16:09:01;;;;;;;7.45;3.50;;;;;;;;;;8145962;28;20059;-60
2022/03/17 16:17:21;;;;;;;4.80;3.45;;;;;;;;;;8148031;28;20068;-59
2022/03/17 16:21:25;;;;;;;8.18;3.95;;;;;;;;;;8147500;28;20854;-59
2022/03/17 16:25:25;;;;;;;;;;;;;;;;;;8147671;28;20074;-59
2022/03/17 16:29:25;;;;;;;5.90;4.45;;;;;;;;;;8147944;29;20009;-59
2022/03/17 16:33:26;;;;;;;9.40;5.07;;;;;;;;;;8144795;28;20047;-59
2022/03/17 16:37:26;;;;;;;11.45;5.53;;;;;;;;;;8146214;28;20031;-59
2022/03/17 16:41:26;;;;;;;7.35;5.60;;;;;;;;;;8145067;28;20065;-60
2022/03/17 16:45:31;;;;;;;8.35;5.90;;;;;;;;;;8144488;28;20103;-60
2022/03/17 16:49:31;;;;;;;8.38;5.97;;;;;;;;;;8146873;28;20526;-59
2022/03/17 16:53:31;;;;;;;9.40;5.93;;;;;;;;;;8146673;28;20039;-60
2022/03/17 16:57:32;;;;;;;7.47;5.35;;;;;;;;;;8147191;28;20035;-60
2022/03/17 17:01:33;;;;;;;13.60;6.43;;;;;;;;;;8145145;28;20036;-59
2022/03/17 17:05:33;;;;;;;9.68;6.32;;;;;;;;;;8145123;28;20405;-60
2022/03/17 17:09:33;;;;;;;9.20;6.05;;;;;;;;;;8144266;28;20030;-59
2022/03/17 17:13:34;;;;;;;8.88;6.25;;;;;;;;;;8146606;29;20062;-63
2022/03/17 17:17:34;;;;;;;8.90;6.10;;;;;;;;;;8144937;28;20039;-59
2022/03/17 17:21:34;;;;;;;11.13;6.70;;;;;;;;;;8146657;28;20951;-60
2022/03/17 17:34:12;;;;;;;11.07;6.53;;;;;;;;;;8144815;28;20524;-59
2022/03/17 17:38:13;;;;;;;8.80;6.05;;;;;;;;;;8145871;28;20114;-59
2022/03/17 17:42:13;;;;;;;10.63;6.60;;;;;;;;;;8145808;28;20027;-59
2022/03/17 17:46:16;;;;;;;12.00;6.97;;;;;;;;;;8150225;28;20118;-59
2022/03/17 17:50:16;;;;;;;8.90;6.38;;;;;;;;;;8144824;28;20137;-59
2022/03/17 17:54:16;;;;;;;8.75;6.40;;;;;;;;;;8148640;28;20094;-59
2022/03/17 17:58:18;;;;;;;8.77;6.35;;;;;;;;;;8148565;28;20027;-59
2022/03/17 18:02:18;;;;;;;8.07;6.22;;;;;;;;;;8147370;28;20036;-59
2022/03/17 18:06:19;;;;;;;9.85;5.93;;;;;;;;;;8150922;28;21044;-59
2022/03/17 18:10:19;;;;;;;9.70;6.07;;;;;;;;;;8149367;29;20579;-59
2022/03/17 18:14:20;;;;;;;10.23;6.18;;;;;;;;;;8147994;28;20127;-59
2022/03/17 18:18:20;;;;;;;9.57;6.30;;;;;;;;;;8148698;28;20031;-59
2022/03/17 18:22:20;;;;;;;9.50;6.53;;;;;;;;;;8148153;28;20035;-59
2022/03/17 18:26:20;;;;;;;7.80;5.80;;;;;;;;;;8150001;28;20325;-59
2022/03/17 18:30:21;;;;;;;9.73;6.15;;;;;;;;;;8148983;28;20125;-60
2022/03/17 18:34:21;;;;;;;8.15;6.15;;;;;;;;;;8150254;28;20095;-59
2022/03/17 18:38:23;;;;;;;8.75;5.95;;;;;;;;;;8147518;28;20026;-59
2022/03/17 18:42:26;;;;;;;9.75;6.75;;;;;;;;;;8147423;28;20031;-59
2022/03/17 18:46:26;;;;;;;8.55;6.40;;;;;;;;;;8148554;28;20047;-59
2022/03/17 18:50:27;;;;;;;8.77;5.95;;;;;;;;;;8147999;28;20039;-59
2022/03/17 18:54:27;;;;;;;11.95;6.65;;;;;;;;;;8150946;28;20452;-59
2022/03/17 18:58:27;;;;;;;9.40;6.57;;;;;;;;;;8150408;28;20615;-59
2022/03/17 19:02:27;;;;;;;8.98;6.07;;;;;;;;;;8147813;28;20753;-59
2022/03/17 19:06:28;;;;;;;9.35;6.20;;;;;;;;;;8148579;28;21015;-59
2022/03/17 19:10:28;;;;;;;11.83;7.17;;;;;;;;;;8140406;28;20023;-59
2022/03/17 19:14:28;;;;;;;8.93;6.55;;;;;;;;;;8141674;28;20337;-58
2022/03/17 19:18:30;;;;;;;13.07;6.70;;;;;;;;;;8141864;28;20391;-59
2022/03/17 19:22:30;;;;;;;9.57;6.00;;;;;;;;;;8142476;28;20516;-58
2022/03/17 19:26:30;;;;;;;8.97;6.27;;;;;;;;;;8142356;28;20082;-59
2022/03/17 19:30:30;;;;;;;9.15;6.30;;;;;;;;;;8143804;28;20275;-59
2022/03/17 19:34:31;;;;;;;9.15;6.18;;;;;;;;;;8143738;28;20035;-59
2022/03/17 19:38:31;;;;;;;9.15;6.03;;;;;;;;;;8142116;29;20024;-59
2022/03/17 19:42:31;;;;;;;9.80;6.05;;;;;;;;;;8148243;28;20047;-59
2022/03/17 19:46:32;;;;;;;10.15;6.00;;;;;;;;;;8146552;28;20128;-59
2022/03/17 19:54:51;;;;;;;7.72;5.20;;;;;;;;;;8148100;28;20033;-59
2022/03/17 19:58:52;;;;;;;12.15;5.30;;;;;;;;;;8146047;29;20027;-59
2022/03/17 20:02:52;;;;;;;8.50;4.82;;;;;;;;;;8146009;28;20882;-58
2022/03/17 20:06:53;;;;;;;9.20;5.22;;;;;;;;;;8148836;28;20024;-59
2022/03/17 20:15:12;;;;;;;8.38;4.70;;;;;;;;;;8144133;28;20097;-60
2022/03/17 20:19:13;;;;;;;10.25;5.07;;;;;;;;;;8147217;28;21108;-59
2022/03/17 20:23:13;;;;;;;6.40;4.50;;;;;;;;;;8147902;29;20212;-61
2022/03/17 20:27:13;;;;;;;10.13;4.83;;;;;;;;;;8148848;28;20110;-59
2022/03/17 20:31:14;;;;;;;10.35;4.80;;;;;;;;;;8145638;28;20754;-59
2022/03/17 20:35:15;;;;;;;8.57;4.38;;;;;;;;;;8141868;28;20035;-59
2022/03/17 20:39:15;;;;;;;11.43;5.27;;;;;;;;;;8138308;28;20027;-59
2022/03/17 20:43:16;;;;;;;8.65;4.40;;;;;;;;;;8138625;28;20354;-59
2022/03/17 20:47:16;;;;;;;8.00;4.00;;;;;;;;;;8138292;28;20045;-59
2022/03/17 20:51:17;;;;;;;7.47;3.40;;;;;;;;;;8136715;28;20367;-59
2022/03/17 20:55:17;;;;;;;9.20;3.38;;;;;;;;;;8139623;28;20022;-59
2022/03/17 20:59:17;;;;;;;7.15;3.05;;;;;;;;;;8137281;28;20020;-59
2022/03/17 21:03:18;;;;;;;7.00;3.20;;;;;;;;;;8138380;28;20609;-59
2022/03/17 21:07:18;;;;;;;5.43;2.53;;;;;;;;;;8136536;28;20524;-59
2022/03/17 21:11:19;;;;;;;4.40;2.38;;;;;;;;;;8135003;28;20422;-58
2022/03/17 21:15:19;;;;;;;7.22;2.67;;;;;;;;;;8135036;28;20425;-59
2022/03/17 21:19:20;;;;;;;12.00;2.67;;;;;;;;;;8136438;28;20047;-59
2022/03/17 21:23:20;;;;;;;5.40;2.20;;;;;;;;;;8139163;28;20739;-59
2022/03/17 21:27:20;;;;;;;9.63;2.25;;;;;;;;;;8137389;28;20961;-59
2022/03/17 21:31:21;;;;;;;7.07;2.00;;;;;;;;;;8137838;28;20368;-60
2022/03/17 21:35:21;;;;;;;12.55;2.22;;;;;;;;;;8137303;28;20309;-59
2022/03/17 21:39:22;;;;;;;7.40;1.90;;;;;;;;;;8137645;28;20031;-60
2022/03/17 21:43:22;;;;;;;7.20;2.10;;;;;;;;;;8135633;28;20584;-59
2022/03/17 21:47:22;;;;;;;4.32;2.13;;;;;;;;;;8141626;28;20469;-60
2022/03/17 21:51:23;;;;;;;4.57;2.10;;;;;;;;;;8138794;28;20775;-59
2022/03/17 21:55:23;;;;;;;4.75;2.05;;;;;;;;;;8137236;29;20040;-59
2022/03/17 21:59:23;;;;;;;6.45;2.10;;;;;;;;;;8135384;28;20455;-59
2022/03/17 22:03:23;;;;;;;7.68;1.90;;;;;;;;;;8135077;28;20043;-59
2022/03/17 22:07:24;;;;;;;5.13;2.00;;;;;;;;;;8139958;28;20035;-59
2022/03/17 22:11:24;;;;;;;4.75;2.00;;;;;;;;;;8135615;28;20738;-59
2022/03/17 22:15:24;;;;;;;9.35;2.22;;;;;;;;;;8137295;28;20180;-59
2022/03/17 22:19:24;;;;;;;4.40;1.85;;;;;;;;;;8136757;28;20019;-59
2022/03/17 22:23:25;;;;;;;8.93;1.80;;;;;;;;;;8136737;28;20058;-59
2022/03/17 22:27:25;;;;;;;6.50;2.22;;;;;;;;;;8136867;28;20032;-59
2022/03/17 22:31:25;;;;;;;5.90;1.52;;;;;;;;;;8137251;28;20052;-59
2022/03/17 22:35:25;;;;;;;9.65;1.98;;;;;;;;;;8135885;28;20082;-60
2022/03/17 22:39:26;;;;;;;9.13;2.25;;;;;;;;;;8138614;28;20368;-59
2022/03/17 22:43:26;;;;;;;4.85;1.92;;;;;;;;;;8142595;28;20571;-59
2022/03/17 22:47:26;;;;;;;5.75;2.00;;;;;;;;;;8140045;28;20710;-59
2022/03/17 22:51:27;;;;;;;7.63;1.75;;;;;;;;;;8142378;28;20631;-59
2022/03/17 22:55:28;;;;;;;8.63;2.10;;;;;;;;;;8141539;28;20035;-59
2022/03/17 22:59:28;;;;;;;8.75;2.42;;;;;;;;;;8140628;28;20035;-59
2022/03/17 23:03:28;;;;;;;9.27;2.10;;;;;;;;;;8140660;28;20046;-59
2022/03/17 23:07:28;;;;;;;7.63;2.00;;;;;;;;;;8142488;28;20165;-59
2022/03/17 23:11:29;;;;;;;10.35;2.55;;;;;;;;;;8138773;28;20199;-58
2022/03/17 23:15:29;;;;;;;7.63;2.22;;;;;;;;;;8140730;28;20044;-59
2022/03/17 23:19:29;;;;;;;7.95;2.42;;;;;;;;;;8141341;28;20078;-59
2022/03/17 23:23:30;;;;;;;7.30;2.35;;;;;;;;;;8140972;28;20377;-59
2022/03/17 23:27:30;;;;;;;5.20;1.80;;;;;;;;;;8141844;28;20395;-59
2022/03/17 23:31:30;;;;;;;9.27;2.67;;;;;;;;;;8140711;28;20491;-59
2022/03/17 23:35:31;;;;;;;5.03;1.67;;;;;;;;;;8144342;28;20647;-59
2022/03/17 23:39:31;;;;;;;7.32;2.13;;;;;;;;;;8142502;28;20022;-59
2022/03/17 23:43:32;;;;;;;4.30;1.92;;;;;;;;;;8143597;28;20042;-60
2022/03/17 23:47:32;;;;;;;4.90;1.85;;;;;;;;;;8145125;28;20058;-59
2022/03/17 23:51:32;;;;;;;7.88;2.22;;;;;;;;;;8149543;28;20098;-59
2022/03/17 23:55:33;;;;;;;6.03;2.30;;;;;;;;;;8149154;28;20038;-59
2022/03/17 23:59:33;;;;;;;7.53;2.35;;;;;;;;;;8148034;28;20026;-59
